Lena — V2FR — position and weather

sailwx.info

Track history (hours):
 
Tides and Currents Weather Stations Pressure Air Temp Water Temp Dewpoint Dewpoint Depression Visibility Wind Speed Wind Dir Waves Ship Positions

Lena

Last reported at 2014-Oct-10 22:24 UTC. Time now 2014-Oct-20 13:07 UTC.
Position N 35°58' E 014°58'.
Warning: this ship's position is 9 days out of date.

Length 152 m; draft 7.3 m.

Type: Cargo ship. MMSI: 304080808.

Date/timePositionNaut miles runAvg speedWind from/ knotsBaromVisibWave heightAir tempDewpointWater temp
2014-Oct-10 22:24N 35°58' E 014°58'1518.1
2014-Oct-10 21:33N 36°02' E 014°40'1818.0
2014-Oct-10 20:33N 36°09' E 014°19'2217.3
2014-Oct-10 19:17N 36°17' E 013°54'3516.9
2014-Oct-10 17:15N 36°32' E 013°15'1216.7
2014-Oct-10 16:33N 36°37' E 013°02'14417.0
2014-Oct-10 08:05N 37°34' E 010°16'915.5
2014-Oct-10 07:31N 37°34' E 010°05'1717.8
2014-Oct-10 06:33N 37°31' E 009°44'1818.0
2014-Oct-10 05:32N 37°27' E 009°21'1818.2
2014-Oct-10 04:33N 37°23' E 008°60'2218.1
2014-Oct-10 03:21N 37°18' E 008°33'1418.2
2014-Oct-10 02:33N 37°18' E 008°14'9017.8
2014-Oct-09 21:30N 37°15' E 006°21'1716.7
2014-Oct-09 20:28N 37°12' E 005°60'4916.9
2014-Oct-09 17:33N 37°07' E 004°58'2118.3
2014-Oct-09 16:24N 37°04' E 004°32'1618.3
2014-Oct-09 15:31N 37°02' E 004°12'1918.8
2014-Oct-09 14:32N 36°59' E 003°49'1818.6
2014-Oct-09 13:33N 36°56' E 003°27'21 1.2
2014-Oct-08 20:07N 36°46' E 003°04'0 0.0
2014-Oct-08 19:30N 36°46' E 003°04'0 0.0
2014-Oct-08 18:33N 36°46' E 003°04'0 0.0
2014-Oct-08 17:23N 36°46' E 003°04'0 0.0
2014-Oct-08 09:08N 36°46' E 003°04'0 0.0
2014-Oct-08 08:32N 36°46' E 003°04'2 0.7
2014-Oct-08 05:24N 36°48' E 003°05'0 0.0
2014-Oct-08 04:24N 36°48' E 003°05'0 0.0
2014-Oct-08 03:29N 36°48' E 003°05'0 0.0
2014-Oct-08 00:31N 36°48' E 003°05'0 0.0
2014-Oct-07 23:25N 36°48' E 003°05'0 0.0
2014-Oct-07 04:27N 36°48' E 003°05'0 0.0
2014-Oct-06 10:12N 36°48' E 003°05'0 0.0
2014-Oct-06 06:22N 36°48' E 003°05'0 0.0
2014-Oct-06 00:19N 36°48' E 003°05'  
2014-Oct-01 06:09N 36°51' E 003°04'1010.4
2014-Oct-01 05:11N 36°52' E 002°51'  
Track history (hours):
 
Tides and Currents Weather Stations Pressure Air Temp Water Temp Dewpoint Dewpoint Depression Visibility Wind Speed Wind Dir Waves Ship Positions

Lena

Last reported at 2014-Oct-10 22:24 UTC. Time now 2014-Oct-20 13:07 UTC.
Position N 35°58' E 014°58'.
Warning: this ship's position is 9 days out of date.

Length 152 m; draft 7.3 m.

Type: Cargo ship. MMSI: 304080808.

Date/timePositionNaut miles runAvg speedWind from/ knotsBaromVisibWave heightAir tempDewpointWater temp
2014-Oct-10 22:24N 35°58' E 014°58'1518.1
2014-Oct-10 21:33N 36°02' E 014°40'1818.0
2014-Oct-10 20:33N 36°09' E 014°19'2217.3
2014-Oct-10 19:17N 36°17' E 013°54'3516.9
2014-Oct-10 17:15N 36°32' E 013°15'1216.7
2014-Oct-10 16:33N 36°37' E 013°02'14417.0
2014-Oct-10 08:05N 37°34' E 010°16'915.5
2014-Oct-10 07:31N 37°34' E 010°05'1717.8
2014-Oct-10 06:33N 37°31' E 009°44'1818.0
2014-Oct-10 05:32N 37°27' E 009°21'1818.2
2014-Oct-10 04:33N 37°23' E 008°60'2218.1
2014-Oct-10 03:21N 37°18' E 008°33'1418.2
2014-Oct-10 02:33N 37°18' E 008°14'9017.8
2014-Oct-09 21:30N 37°15' E 006°21'1716.7
2014-Oct-09 20:28N 37°12' E 005°60'4916.9
2014-Oct-09 17:33N 37°07' E 004°58'2118.3
2014-Oct-09 16:24N 37°04' E 004°32'1618.3
2014-Oct-09 15:31N 37°02' E 004°12'1918.8
2014-Oct-09 14:32N 36°59' E 003°49'1818.6
2014-Oct-09 13:33N 36°56' E 003°27'21 1.2
2014-Oct-08 20:07N 36°46' E 003°04'0 0.0
2014-Oct-08 19:30N 36°46' E 003°04'0 0.0
2014-Oct-08 18:33N 36°46' E 003°04'0 0.0
2014-Oct-08 17:23N 36°46' E 003°04'0 0.0
2014-Oct-08 09:08N 36°46' E 003°04'0 0.0
2014-Oct-08 08:32N 36°46' E 003°04'2 0.7
2014-Oct-08 05:24N 36°48' E 003°05'0 0.0
2014-Oct-08 04:24N 36°48' E 003°05'0 0.0
2014-Oct-08 03:29N 36°48' E 003°05'0 0.0
2014-Oct-08 00:31N 36°48' E 003°05'0 0.0
2014-Oct-07 23:25N 36°48' E 003°05'0 0.0
2014-Oct-07 04:27N 36°48' E 003°05'0 0.0
2014-Oct-06 10:12N 36°48' E 003°05'0 0.0
2014-Oct-06 06:22N 36°48' E 003°05'0 0.0
2014-Oct-06 00:19N 36°48' E 003°05'  
2014-Oct-01 06:09N 36°51' E 003°04'1010.4
2014-Oct-01 05:11N 36°52' E 002°51'  

Dump ship's entire track history